Jericho, NY (11753)

3:45 PM EDT on July 30, 2016 (GMT -0400)
Jericho - E. Birchwood | | Change Station

Elev 190 ft 40.79 °N, 73.52 °W | Updated 7 minutes ago

Mostly Cloudy
Mostly Cloudy
77.8 °F
Feels Like 80 °F
N
2.7
Wind Variable Wind from South

Today
High -- | Low -- °F
--% Chance of Precip.
Yesterday
High -- | Low -- °F
Precip. -- in
Pressure 29.99 in
Visibility 10.0 miles
Clouds Mostly Cloudy 1700 ft
Mostly Cloudy 3000 ft
Heat Index 80 °F
Dew Point 68 °F
Humidity 73%
Rainfall 0.00 in
Snow Depth Not available.
5:49 AM 8:11 PM
Waning Crescent, 11% visible
SPECI KFRG 301940Z 17009KT 10SM BKN017 BKN030 26/22 A2999 RMK AO2 T02610222
Pressure 29.99 in
Visibility 10.0 miles
Clouds Mostly Cloudy 1700 ft
Mostly Cloudy 3000 ft
Heat Index 80 °F
Dew Point 68 °F
Humidity 73%
Rainfall 0.00 in
Snow Depth Not available.
5:49 AM 8:11 PM
Waning Crescent, 11% visible
SPECI KFRG 301940Z 17009KT 10SM BKN017 BKN030 26/22 A2999 RMK AO2 T02610222

10-Day Weather Forecast

Almanac

Astronomy

Jul. 30, 2016 Rise Set
Actual Time
Civil Twilight
Nautical Twilight
Astronomical Twilight
Moon
Length of Visible Light
Length of Day
Tomorrow will be .
, % of the Moon is Illuminated

Today's Extremes

State Highs State Lows

Community

WunderPhotos

Upload Photos

1,928,628 photos uploaded!

WunderBlog® & News

Nearby

Air Quality

  Air Quality AQ Index Pollutant
Not available.

Snow Depth

Station Depth Elevation

Earthquake Activity

City Distance Mag. Time & Date
Minimum magnitude displayed is 2.5.

Coastal Water Temperatures

Place Temperature

Stations

Nearby Weather Stations

Station Location Temp. Windchill Dew Point Humidity Wind Precip. Elev Updated Type
                   

Watches & Warnings

There are currently no watches in effect.